createdAt,value
2018-06-14T00:00:20.966Z,9.93
2018-06-14T00:02:49.962Z,5.40
2018-06-14T00:05:19.059Z,7.87
2018-06-14T00:07:48.034Z,8.70
2018-06-14T00:10:17.024Z,7.47
2018-06-14T00:12:46.019Z,6.40
2018-06-14T00:15:14.930Z,8.33
2018-06-14T00:17:43.574Z,7.17
2018-06-14T00:20:12.346Z,9.87
2018-06-14T00:22:41.271Z,7.83
2018-06-14T00:25:10.177Z,7.37
2018-06-14T00:27:39.184Z,7.80
2018-06-14T00:30:08.131Z,8.47
2018-06-14T00:32:37.074Z,7.03
2018-06-14T00:35:06.083Z,6.73
2018-06-14T00:37:35.226Z,8.47
2018-06-14T00:40:04.440Z,9.40
2018-06-14T00:42:33.362Z,6.53
2018-06-14T00:45:02.372Z,7.07
2018-06-14T00:47:31.302Z,8.90
2018-06-14T00:50:00.334Z,6.93
2018-06-14T00:52:29.280Z,6.50
2018-06-14T00:54:58.357Z,7.63
2018-06-14T00:57:27.506Z,7.10
2018-06-14T00:59:56.441Z,7.83
2018-06-14T01:02:25.457Z,11.60
2018-06-14T01:04:54.374Z,8.43
2018-06-14T01:07:23.314Z,7.67
2018-06-14T01:09:52.349Z,6.67
2018-06-14T01:12:21.442Z,7.80
2018-06-14T01:14:50.516Z,9.93
2018-06-14T01:17:19.462Z,8.17
2018-06-14T01:19:48.380Z,13.37
2018-06-14T01:22:17.322Z,9.03
2018-06-14T01:24:46.258Z,8.43
2018-06-14T01:27:15.306Z,10.87
2018-06-14T01:29:44.309Z,8.27
2018-06-14T01:32:13.209Z,7.70
2018-06-14T01:34:42.350Z,6.77
2018-06-14T01:37:11.293Z,8.17
2018-06-14T01:39:40.365Z,8.83
2018-06-14T01:42:09.698Z,9.77
2018-06-14T01:44:38.635Z,10.50
2018-06-14T01:47:07.825Z,11.17
2018-06-14T01:49:36.812Z,8.53
2018-06-14T01:52:05.897Z,12.83
2018-06-14T01:54:34.879Z,15.07
2018-06-14T01:57:03.983Z,9.50
2018-06-14T01:59:32.976Z,15.90
2018-06-14T02:02:01.877Z,15.53
2018-06-14T02:04:30.794Z,14.80
2018-06-14T02:06:59.711Z,13.60
2018-06-14T02:09:28.867Z,10.90
2018-06-14T02:11:57.991Z,20.63
2018-06-14T02:14:26.878Z,16.93
2018-06-14T02:16:55.827Z,11.33
2018-06-14T02:19:24.743Z,15.70
2018-06-14T02:21:53.753Z,12.40
2018-06-14T02:24:22.707Z,12.00
2018-06-14T02:26:51.362Z,11.03
2018-06-14T02:29:20.442Z,12.40
2018-06-14T02:31:49.369Z,13.73
2018-06-14T02:34:18.466Z,14.10
2018-06-14T02:36:47.607Z,14.03
2018-06-14T02:39:16.502Z,13.70
2018-06-14T02:41:45.511Z,17.30
2018-06-14T02:44:14.444Z,15.67
2018-06-14T02:46:43.396Z,11.63
2018-06-14T02:49:12.307Z,13.93
2018-06-14T02:51:41.413Z,15.30
2018-06-14T02:54:10.585Z,14.77
2018-06-14T02:56:39.787Z,15.07
2018-06-14T02:59:08.726Z,10.10
2018-06-14T03:01:37.658Z,13.97
2018-06-14T03:04:06.791Z,9.80
2018-06-14T03:06:35.711Z,15.53
2018-06-14T03:09:06.611Z,14.83
2018-06-14T03:11:35.550Z,12.93
2018-06-14T03:14:04.491Z,12.57
2018-06-14T03:16:33.596Z,12.53
2018-06-14T03:19:02.630Z,14.23
2018-06-14T03:21:31.681Z,12.57
2018-06-14T03:24:00.587Z,9.63
2018-06-14T03:26:29.621Z,14.30
2018-06-14T03:28:58.626Z,11.47
2018-06-14T03:31:27.508Z,10.07
2018-06-14T03:33:56.207Z,8.80
2018-06-14T03:36:25.097Z,13.10
2018-06-14T03:38:54.018Z,8.33
2018-06-14T03:41:23.014Z,15.07
2018-06-14T03:43:51.998Z,8.83
2018-06-14T03:46:21.022Z,13.80
2018-06-14T03:48:50.099Z,11.57
2018-06-14T03:51:19.221Z,11.60
2018-06-14T03:53:48.227Z,14.17
2018-06-14T03:56:17.175Z,11.77
2018-06-14T03:58:46.232Z,10.37
2018-06-14T04:01:15.227Z,11.57
2018-06-14T04:03:44.105Z,9.60
2018-06-14T04:06:13.197Z,8.77
2018-06-14T04:08:42.286Z,10.67
2018-06-14T04:11:11.238Z,11.87
2018-06-14T04:13:40.126Z,13.90
2018-06-14T04:16:09.139Z,11.53
2018-06-14T04:18:38.283Z,8.17
2018-06-14T04:21:07.220Z,8.00
2018-06-14T04:23:36.150Z,10.87
2018-06-14T04:26:05.141Z,11.17
2018-06-14T04:28:34.130Z,12.60
2018-06-14T04:31:03.084Z,9.87
2018-06-14T04:33:32.026Z,12.47
2018-06-14T04:36:01.013Z,7.77
2018-06-14T04:38:29.836Z,10.60
2018-06-14T04:40:58.690Z,14.77
2018-06-14T04:43:27.615Z,12.63
2018-06-14T04:45:56.571Z,12.00
2018-06-14T04:48:25.446Z,8.90
2018-06-14T04:50:54.446Z,7.93
2018-06-14T04:53:23.443Z,8.30
2018-06-14T04:55:52.369Z,11.43
2018-06-14T04:58:21.285Z,7.93
2018-06-14T05:00:50.219Z,7.37
2018-06-14T05:03:19.278Z,10.10
2018-06-14T05:05:48.218Z,8.23
2018-06-14T05:08:17.714Z,8.20
2018-06-14T05:10:46.693Z,10.73
2018-06-14T05:13:15.666Z,8.60
2018-06-14T05:15:44.954Z,10.23
2018-06-14T05:18:14.006Z,9.57
2018-06-14T05:20:42.943Z,9.27
2018-06-14T05:23:12.057Z,9.33
2018-06-14T05:25:41.029Z,7.80
2018-06-14T05:28:09.974Z,5.37
2018-06-14T05:30:39.070Z,11.30
2018-06-14T05:33:07.997Z,15.07
2018-06-14T05:35:36.992Z,14.63
2018-06-14T05:38:06.140Z,11.90
2018-06-14T05:40:35.014Z,8.43
2018-06-14T05:43:04.215Z,10.50
2018-06-14T05:45:33.281Z,10.80
2018-06-14T05:48:02.484Z,9.77
2018-06-14T05:50:31.474Z,9.60
2018-06-14T05:53:00.463Z,8.20
2018-06-14T05:55:29.389Z,8.80
2018-06-14T05:57:58.327Z,9.43
2018-06-14T06:00:27.234Z,8.57
2018-06-14T06:02:56.219Z,10.20
2018-06-14T06:05:25.258Z,9.73
2018-06-14T06:07:54.339Z,11.30
2018-06-14T06:10:23.633Z,10.83
2018-06-14T06:12:52.568Z,11.13
2018-06-14T06:15:21.578Z,10.47
2018-06-14T06:17:50.491Z,10.87
2018-06-14T06:20:19.156Z,11.17
2018-06-14T06:22:48.016Z,8.00
2018-06-14T06:25:17.061Z,14.30
2018-06-14T06:27:46.178Z,10.60
2018-06-14T06:30:15.431Z,10.90
2018-06-14T06:32:44.377Z,10.90
2018-06-14T06:35:13.309Z,12.00
2018-06-14T06:37:42.262Z,8.70
2018-06-14T06:40:11.240Z,11.33
2018-06-14T06:42:40.205Z,9.80
2018-06-14T06:45:09.204Z,13.10
2018-06-14T06:47:38.197Z,8.90
2018-06-14T06:50:07.190Z,8.97
2018-06-14T06:52:36.177Z,13.00
2018-06-14T06:55:05.261Z,10.00
2018-06-14T06:57:34.193Z,9.03
2018-06-14T07:00:03.385Z,9.67
2018-06-14T07:02:32.494Z,8.63
2018-06-14T07:05:01.638Z,11.03
2018-06-14T07:07:30.620Z,12.30
2018-06-14T07:09:59.629Z,9.43
2018-06-14T07:12:28.617Z,8.33
2018-06-14T07:14:57.710Z,9.60
2018-06-14T07:17:26.930Z,10.27
2018-06-14T07:19:55.657Z,10.77
2018-06-14T07:22:24.391Z,16.23
2018-06-14T07:24:53.366Z,11.37
2018-06-14T07:27:22.321Z,10.90
2018-06-14T07:29:51.350Z,10.70
2018-06-14T07:32:20.418Z,11.23
2018-06-14T07:34:49.587Z,11.47
2018-06-14T07:37:18.580Z,11.63
2018-06-14T07:39:47.497Z,11.13
2018-06-14T07:42:16.473Z,11.90
2018-06-14T07:44:45.567Z,9.17
2018-06-14T07:47:14.505Z,10.47
2018-06-14T07:49:43.466Z,8.73
2018-06-14T07:52:12.645Z,12.57
2018-06-14T07:54:41.719Z,9.53
2018-06-14T07:57:10.754Z,10.30
2018-06-14T07:59:39.645Z,7.87
2018-06-14T08:02:08.634Z,10.97
2018-06-14T08:04:37.563Z,13.63
2018-06-14T08:07:06.491Z,11.27
2018-06-14T08:09:35.663Z,12.33
2018-06-14T08:12:04.727Z,9.80
2018-06-14T08:14:34.068Z,14.97
2018-06-14T08:17:03.231Z,7.50
2018-06-14T08:19:32.224Z,7.13
2018-06-14T08:22:01.301Z,6.27
2018-06-14T08:24:30.352Z,4.23
2018-06-14T08:26:59.257Z,9.17
2018-06-14T08:29:28.301Z,7.10
2018-06-14T08:31:57.274Z,5.00
2018-06-14T08:34:26.358Z,5.30
2018-06-14T08:36:55.323Z,6.73
2018-06-14T08:39:24.273Z,6.17
2018-06-14T08:41:53.445Z,4.07
2018-06-14T08:44:22.367Z,3.90
2018-06-14T08:46:51.268Z,6.60
2018-06-14T08:49:20.448Z,11.30
2018-06-14T08:51:49.374Z,7.33
2018-06-14T08:54:18.522Z,4.97
2018-06-14T08:56:47.203Z,3.87
2018-06-14T08:59:15.954Z,4.87
2018-06-14T09:01:44.870Z,4.73
2018-06-14T09:04:13.565Z,6.87
2018-06-14T09:06:42.417Z,8.73
2018-06-14T09:09:11.400Z,8.03
2018-06-14T09:11:40.424Z,3.37
2018-06-14T09:14:09.570Z,4.73
2018-06-14T09:16:38.629Z,7.90
2018-06-14T09:19:07.835Z,5.80
2018-06-14T09:21:36.821Z,7.80
2018-06-14T09:24:05.812Z,3.43
2018-06-14T09:26:34.802Z,5.83
2018-06-14T09:29:03.799Z,4.40
2018-06-14T09:31:32.493Z,10.90
2018-06-14T09:34:01.320Z,5.23
2018-06-14T09:36:30.362Z,4.80
2018-06-14T09:38:59.366Z,8.60
2018-06-14T09:41:28.524Z,4.53
2018-06-14T09:43:57.471Z,6.90
2018-06-14T09:46:26.396Z,5.97
2018-06-14T09:48:55.502Z,3.37
2018-06-14T09:51:24.432Z,4.90
2018-06-14T09:53:53.408Z,4.27
2018-06-14T09:56:22.533Z,6.40
2018-06-14T09:58:51.624Z,7.87
2018-06-14T10:01:20.603Z,3.10
2018-06-14T10:03:49.600Z,7.27
2018-06-14T10:06:18.626Z,3.57
2018-06-14T10:08:47.609Z,4.23
2018-06-14T10:11:16.556Z,5.17
2018-06-14T10:13:45.877Z,4.80
2018-06-14T10:16:14.831Z,4.47
2018-06-14T10:18:43.972Z,4.33
2018-06-14T10:21:12.866Z,8.00
2018-06-14T10:23:41.791Z,5.43
2018-06-14T10:26:11.638Z,5.37
2018-06-14T10:28:40.696Z,4.20
2018-06-14T10:31:10.026Z,4.47
2018-06-14T10:33:38.789Z,4.53
2018-06-14T10:36:07.548Z,3.93
2018-06-14T10:38:36.614Z,8.70
2018-06-14T10:41:05.816Z,3.23
2018-06-14T10:43:34.748Z,2.53
2018-06-14T10:46:03.743Z,5.00
2018-06-14T10:48:32.665Z,6.07
2018-06-14T10:51:01.773Z,4.03
2018-06-14T10:53:30.758Z,3.60
2018-06-14T10:55:59.389Z,3.83
2018-06-14T10:58:28.113Z,5.10
2018-06-14T11:00:57.051Z,6.47
2018-06-14T11:03:25.989Z,4.83
2018-06-14T11:05:54.959Z,5.13
2018-06-14T11:08:23.917Z,5.53
2018-06-14T11:10:52.989Z,4.73
2018-06-14T11:13:21.935Z,5.83
2018-06-14T11:15:51.021Z,3.00
2018-06-14T11:18:19.977Z,5.47
2018-06-14T11:20:48.890Z,5.30
2018-06-14T11:23:17.936Z,3.83
2018-06-14T11:25:46.650Z,8.47
2018-06-14T11:28:15.305Z,4.63
2018-06-14T11:30:44.362Z,4.37
2018-06-14T11:33:13.472Z,4.83
2018-06-14T11:35:42.607Z,4.20
2018-06-14T11:38:11.689Z,6.17
2018-06-14T11:40:40.366Z,6.17
2018-06-14T11:43:09.344Z,6.90
2018-06-14T11:45:38.187Z,6.77
2018-06-14T11:48:06.922Z,6.10
2018-06-14T11:50:35.867Z,4.30
2018-06-14T11:53:04.758Z,3.30
2018-06-14T11:55:33.713Z,3.80
2018-06-14T11:58:02.661Z,5.80
2018-06-14T12:00:31.611Z,6.53
2018-06-14T12:03:01.091Z,4.10
2018-06-14T12:05:30.054Z,4.60
2018-06-14T12:07:59.146Z,7.07
2018-06-14T12:10:28.125Z,7.37
2018-06-14T12:12:57.115Z,2.63
2018-06-14T12:15:26.063Z,7.83
2018-06-14T12:17:55.022Z,6.47
2018-06-14T12:20:23.993Z,4.83
2018-06-14T12:22:53.106Z,3.63
2018-06-14T12:25:22.063Z,5.90
2018-06-14T12:27:51.020Z,5.63
2018-06-14T12:30:19.950Z,2.83
2018-06-14T12:32:48.938Z,2.90
2018-06-14T12:35:17.930Z,5.57
2018-06-14T12:37:46.936Z,6.00
2018-06-14T12:40:15.919Z,5.70
2018-06-14T12:42:44.905Z,5.90
2018-06-14T12:45:13.866Z,2.70
2018-06-14T12:47:42.812Z,4.03
2018-06-14T12:50:11.954Z,5.07
2018-06-14T12:52:41.082Z,6.40
2018-06-14T12:55:10.108Z,5.37
2018-06-14T12:57:39.038Z,4.93
2018-06-14T13:00:08.061Z,2.90
2018-06-14T13:02:37.052Z,5.47
2018-06-14T13:05:06.031Z,5.97
2018-06-14T13:07:35.227Z,4.60
2018-06-14T13:10:04.372Z,3.23
2018-06-14T13:12:33.323Z,3.13
2018-06-14T13:15:02.269Z,3.77
2018-06-14T13:17:31.185Z,3.30
2018-06-14T13:20:00.339Z,9.37
2018-06-14T13:22:29.296Z,6.43
2018-06-14T13:24:58.067Z,3.60
2018-06-14T13:27:27.024Z,2.63
2018-06-14T13:29:56.250Z,4.93
2018-06-14T13:32:25.187Z,5.97
2018-06-14T13:34:54.125Z,3.67
2018-06-14T13:37:23.082Z,4.97
2018-06-14T13:39:52.048Z,8.97
2018-06-14T13:42:21.065Z,3.63
2018-06-14T13:44:49.995Z,7.13
2018-06-14T13:47:19.025Z,4.80
2018-06-14T13:49:48.006Z,3.27
2018-06-14T13:52:16.934Z,4.03
2018-06-14T13:54:45.876Z,3.50
2018-06-14T13:57:15.106Z,6.27
2018-06-14T13:59:44.079Z,5.63
2018-06-14T14:02:13.074Z,7.97
2018-06-14T14:04:42.014Z,7.37
2018-06-14T14:07:11.108Z,7.07
2018-06-14T14:09:40.056Z,6.10
2018-06-14T14:12:09.280Z,4.77
2018-06-14T14:14:38.329Z,6.03
2018-06-14T14:17:07.192Z,5.57
2018-06-14T14:19:36.111Z,6.47
2018-06-14T14:22:05.318Z,5.50
2018-06-14T14:24:34.282Z,5.57
2018-06-14T14:27:03.222Z,3.67
2018-06-14T14:29:32.212Z,3.97
2018-06-14T14:32:01.321Z,6.53
2018-06-14T14:34:30.249Z,6.53
2018-06-14T14:36:59.406Z,5.50
2018-06-14T14:39:28.606Z,3.53
2018-06-14T14:41:57.522Z,10.33
2018-06-14T14:44:26.458Z,12.20
2018-06-14T14:46:55.551Z,8.63
2018-06-14T14:49:24.661Z,7.87
2018-06-14T14:51:53.722Z,9.53
2018-06-14T14:54:22.765Z,12.40
2018-06-14T14:56:51.696Z,12.23
2018-06-14T14:59:20.694Z,11.17
2018-06-14T15:01:49.646Z,8.23
2018-06-14T15:04:18.639Z,11.90
2018-06-14T15:06:47.591Z,11.33
2018-06-14T15:09:16.490Z,7.07
2018-06-14T15:11:45.434Z,9.77
2018-06-14T15:14:14.447Z,9.20
2018-06-14T15:16:43.499Z,11.67
2018-06-14T15:19:18.688Z,7.97
2018-06-14T15:21:47.409Z,11.73
2018-06-14T15:24:16.138Z,11.30
2018-06-14T15:26:45.259Z,8.10
2018-06-14T15:29:14.209Z,12.33
2018-06-14T15:31:43.179Z,9.33
2018-06-14T15:34:12.101Z,7.83
2018-06-14T15:36:41.017Z,14.37
2018-06-14T15:39:10.024Z,8.03
2018-06-14T15:41:39.026Z,9.53
2018-06-14T15:44:07.886Z,13.13
2018-06-14T15:46:36.538Z,9.43
2018-06-14T15:49:05.287Z,11.43
2018-06-14T15:51:34.228Z,15.90
2018-06-14T15:54:03.267Z,12.27
2018-06-14T15:56:32.435Z,11.77
2018-06-14T15:59:02.688Z,7.90
2018-06-14T16:01:31.872Z,9.00
2018-06-14T16:04:00.805Z,13.77
2018-06-14T16:06:29.769Z,15.27
2018-06-14T16:08:58.729Z,13.57
2018-06-14T16:11:27.809Z,11.97
2018-06-14T16:13:56.815Z,16.23
2018-06-14T16:16:25.971Z,21.63
2018-06-14T16:18:55.284Z,14.33
2018-06-14T16:21:24.243Z,16.93
2018-06-14T16:23:53.205Z,16.23
2018-06-14T16:26:21.967Z,11.00
2018-06-14T16:28:50.669Z,12.20
2018-06-14T16:31:19.709Z,11.77
2018-06-14T16:33:48.752Z,12.50
2018-06-14T16:36:17.722Z,8.80
2018-06-14T16:38:46.838Z,11.33
2018-06-14T16:41:15.925Z,11.83
2018-06-14T16:43:44.981Z,14.93
2018-06-14T16:46:14.642Z,16.80
2018-06-14T16:48:43.353Z,8.97
2018-06-14T16:51:12.275Z,14.70
2018-06-14T16:53:41.200Z,9.37
2018-06-14T16:56:10.442Z,12.17
2018-06-14T16:58:39.399Z,10.30
2018-06-14T17:01:08.459Z,10.50
2018-06-14T17:03:37.472Z,8.43
2018-06-14T17:06:06.687Z,13.47
2018-06-14T17:08:35.631Z,11.53
2018-06-14T17:11:04.879Z,10.97
2018-06-14T17:13:34.229Z,11.27
2018-06-14T17:16:03.303Z,10.10
2018-06-14T17:18:32.040Z,7.60
2018-06-14T17:21:00.852Z,10.47
2018-06-14T17:23:30.159Z,9.33
2018-06-14T17:25:59.354Z,9.20
2018-06-14T17:28:28.300Z,8.93
2018-06-14T17:30:57.343Z,10.83
2018-06-14T17:33:26.337Z,9.97
2018-06-14T17:35:55.306Z,10.90
2018-06-14T17:38:24.494Z,9.60
2018-06-14T17:40:53.532Z,10.57
2018-06-14T17:43:22.682Z,9.30
2018-06-14T17:45:51.679Z,7.27
2018-06-14T17:48:20.638Z,8.17
2018-06-14T17:50:49.714Z,8.07
2018-06-14T17:53:18.665Z,11.33
2018-06-14T17:55:47.699Z,7.80
2018-06-14T17:58:16.758Z,7.60
2018-06-14T18:00:45.926Z,8.57
2018-06-14T18:03:14.910Z,9.00
2018-06-14T18:05:43.976Z,7.93
2018-06-14T18:08:13.026Z,9.97
2018-06-14T18:10:41.781Z,7.70
2018-06-14T18:13:10.652Z,8.80
2018-06-14T18:15:39.621Z,9.30
2018-06-14T18:18:08.640Z,9.00
2018-06-14T18:20:37.676Z,7.50
2018-06-14T18:23:07.240Z,7.47
2018-06-14T18:25:36.433Z,7.27
2018-06-14T18:28:05.608Z,7.77
2018-06-14T18:30:34.570Z,9.90
2018-06-14T18:33:03.774Z,7.03
2018-06-14T18:35:32.783Z,10.17
2018-06-14T18:38:01.959Z,9.27
2018-06-14T18:40:30.681Z,8.60
2018-06-14T18:42:59.611Z,8.13
2018-06-14T18:45:28.751Z,8.93
2018-06-14T18:47:57.657Z,8.73
2018-06-14T18:50:26.844Z,11.47
2018-06-14T18:52:55.867Z,7.67
2018-06-14T18:55:24.622Z,8.27
2018-06-14T18:57:53.444Z,8.20
2018-06-14T19:00:22.483Z,16.17
2018-06-14T19:02:51.444Z,8.30
2018-06-14T19:05:20.542Z,8.37
2018-06-14T19:17:39.486Z,8.60
2018-06-14T19:20:08.631Z,8.60
2018-06-14T19:22:37.606Z,9.63
2018-06-14T19:25:07.147Z,9.20
2018-06-14T19:27:35.924Z,12.77
2018-06-14T19:30:04.778Z,12.43
2018-06-14T19:32:33.853Z,9.37
2018-06-14T19:35:03.024Z,7.80
2018-06-14T19:37:32.028Z,10.23
2018-06-14T19:40:01.118Z,9.20
2018-06-14T19:42:30.034Z,7.03
2018-06-14T19:44:59.076Z,5.73
2018-06-14T19:47:28.091Z,9.40
2018-06-14T19:49:57.026Z,7.70
2018-06-14T19:52:26.006Z,8.57
2018-06-14T19:54:55.038Z,6.07
2018-06-14T19:57:24.010Z,6.97
2018-06-14T19:59:53.319Z,7.20
2018-06-14T20:02:22.090Z,6.87
2018-06-14T20:04:50.863Z,6.47
2018-06-14T20:07:19.862Z,6.70
2018-06-14T20:09:48.808Z,7.17
2018-06-14T20:12:17.718Z,8.47
2018-06-14T20:14:46.793Z,5.20
2018-06-14T20:17:15.818Z,9.23
2018-06-14T20:19:44.842Z,12.57
2018-06-14T20:22:14.137Z,8.53
2018-06-14T20:24:43.058Z,8.63
2018-06-14T20:27:12.017Z,9.13
2018-06-14T20:29:40.962Z,9.03
2018-06-14T20:32:09.932Z,9.67
2018-06-14T20:34:39.041Z,9.07
2018-06-14T20:37:08.045Z,12.13
2018-06-14T20:39:36.987Z,8.63
2018-06-14T20:42:06.123Z,13.03
2018-06-14T20:44:35.086Z,9.70
2018-06-14T20:47:04.299Z,8.60
2018-06-14T20:49:33.201Z,8.83
2018-06-14T20:52:02.270Z,7.57
2018-06-14T20:54:31.261Z,9.90
2018-06-14T20:57:00.247Z,11.30
2018-06-14T20:59:29.204Z,10.30
2018-06-14T21:01:58.134Z,8.27
2018-06-14T21:04:27.114Z,10.63
2018-06-14T21:06:56.098Z,10.93
2018-06-14T21:09:25.100Z,11.77
2018-06-14T21:11:54.082Z,9.93
2018-06-14T21:14:23.023Z,10.47
2018-06-14T21:16:52.014Z,9.70
2018-06-14T21:19:20.962Z,11.53
2018-06-14T21:21:49.946Z,8.37
2018-06-14T21:24:18.967Z,14.13
2018-06-14T21:26:47.981Z,7.63
2018-06-14T21:29:17.053Z,15.30
2018-06-14T21:31:46.124Z,9.30
2018-06-14T21:34:15.088Z,9.27
2018-06-14T21:36:45.036Z,8.57
2018-06-14T21:39:13.948Z,7.97
2018-06-14T21:41:42.881Z,10.40
2018-06-14T21:44:12.106Z,8.80
2018-06-14T21:46:41.154Z,14.20
2018-06-14T21:49:10.147Z,9.27
2018-06-14T21:51:39.070Z,9.83
2018-06-14T21:54:08.387Z,9.60
2018-06-14T21:56:37.642Z,8.90
2018-06-14T21:59:06.578Z,10.53
2018-06-14T22:01:35.701Z,8.83
2018-06-14T22:04:11.453Z,10.03
2018-06-14T22:06:40.430Z,10.13
2018-06-14T22:09:09.658Z,10.67
2018-06-14T22:11:38.906Z,9.27
2018-06-14T22:14:07.962Z,7.67
2018-06-14T22:16:37.131Z,9.80
2018-06-14T22:19:06.114Z,10.77
2018-06-14T22:21:35.150Z,11.13
2018-06-14T22:24:04.480Z,9.47
2018-06-14T22:26:33.431Z,11.20
2018-06-14T22:29:02.431Z,11.10
2018-06-14T22:31:31.416Z,8.40
2018-06-14T22:34:11.767Z,9.80
2018-06-14T22:36:40.881Z,13.23
2018-06-14T22:39:09.879Z,12.70
2018-06-14T22:41:38.826Z,12.13
2018-06-14T22:44:08.184Z,12.13
2018-06-14T22:46:37.048Z,16.57
2018-06-14T22:49:05.992Z,10.67
2018-06-14T22:51:53.172Z,11.73
2018-06-14T22:54:22.390Z,13.30
2018-06-14T22:56:51.453Z,11.60
2018-06-14T22:59:20.367Z,15.80
2018-06-14T23:01:49.593Z,13.77
2018-06-14T23:04:18.959Z,14.50
2018-06-14T23:06:48.002Z,11.63
2018-06-14T23:10:28.268Z,12.87
2018-06-14T23:12:57.283Z,14.30
2018-06-14T23:15:26.246Z,11.63
2018-06-14T23:17:55.278Z,15.60
2018-06-14T23:20:24.439Z,14.30
2018-06-14T23:22:54.386Z,10.53
2018-06-14T23:25:23.316Z,13.17
2018-06-14T23:27:58.931Z,18.83
2018-06-14T23:30:27.867Z,15.43
2018-06-14T23:32:56.954Z,13.70
2018-06-14T23:35:25.993Z,17.43
2018-06-14T23:37:54.919Z,16.80
2018-06-14T23:40:24.052Z,14.13
2018-06-14T23:42:52.933Z,13.60
2018-06-14T23:45:21.858Z,17.77
2018-06-14T23:47:50.818Z,20.63
2018-06-14T23:50:19.854Z,13.80
2018-06-14T23:52:48.810Z,14.00
2018-06-14T23:55:17.817Z,11.73
2018-06-14T23:57:46.825Z,13.27
